createdAt,value
2023-01-07T00:01:22.729Z,8.84
2023-01-07T00:03:51.585Z,8.93
2023-01-07T00:06:20.741Z,8.86
2023-01-07T00:08:49.093Z,8.84
2023-01-07T00:11:18.167Z,9.04
2023-01-07T00:13:44.983Z,8.82
2023-01-07T00:16:12.985Z,8.85
2023-01-07T00:18:40.368Z,8.71
2023-01-07T00:21:09.909Z,8.67
2023-01-07T00:23:38.546Z,8.78
2023-01-07T00:26:10.587Z,8.64
2023-01-07T00:28:39.598Z,8.57
2023-01-07T00:31:11.954Z,8.60
2023-01-07T00:34:02.647Z,8.62
2023-01-07T00:36:40.601Z,8.32
2023-01-07T00:39:15.827Z,8.24
2023-01-07T00:42:01.575Z,8.20
2023-01-07T00:44:30.134Z,8.16
2023-01-07T00:46:57.554Z,8.16
2023-01-07T00:49:27.102Z,8.15
2023-01-07T00:51:53.887Z,8.26
2023-01-07T00:54:20.478Z,8.08
2023-01-07T00:56:46.957Z,7.96
2023-01-07T00:59:13.511Z,7.87
2023-01-07T01:01:40.115Z,7.95
2023-01-07T01:04:08.059Z,8.06
2023-01-07T01:06:34.703Z,7.98
2023-01-07T01:09:01.453Z,8.05
2023-01-07T01:11:28.295Z,8.05
2023-01-07T01:13:54.953Z,8.21
2023-01-07T01:16:21.593Z,8.06
2023-01-07T01:18:48.067Z,8.05
2023-01-07T01:21:15.662Z,7.74
2023-01-07T01:23:43.017Z,7.79
2023-01-07T01:26:13.243Z,7.75
2023-01-07T01:28:40.257Z,7.71
2023-01-07T01:31:08.310Z,7.77
2023-01-07T01:33:35.082Z,7.92
2023-01-07T01:36:10.666Z,8.02
2023-01-07T01:38:37.704Z,8.04
2023-01-07T01:41:05.898Z,8.01
2023-01-07T01:43:33.836Z,8.04
2023-01-07T01:46:04.402Z,8.41
2023-01-07T01:48:35.095Z,8.54
2023-01-07T01:51:02.882Z,8.42
2023-01-07T01:53:33.441Z,8.38
2023-01-07T01:56:07.145Z,8.26
2023-01-07T01:58:37.504Z,8.50
2023-01-07T02:01:04.256Z,8.48
2023-01-07T02:03:35.090Z,8.48
2023-01-07T02:06:02.355Z,8.49
2023-01-07T02:08:29.535Z,8.49
2023-01-07T02:11:22.748Z,8.37
2023-01-07T02:14:12.025Z,8.46
2023-01-07T02:16:48.604Z,8.60
2023-01-07T02:19:26.897Z,8.45
2023-01-07T02:22:05.355Z,8.52
2023-01-07T02:25:01.561Z,8.67
2023-01-07T02:27:43.505Z,8.71
2023-01-07T02:30:43.396Z,8.84
2023-01-07T02:33:32.365Z,8.92
2023-01-07T02:36:17.684Z,8.93
2023-01-07T02:38:59.162Z,8.92
2023-01-07T02:41:32.193Z,8.99
2023-01-07T02:44:14.367Z,9.05
2023-01-07T02:47:00.982Z,9.03
2023-01-07T02:49:27.580Z,9.08
2023-01-07T02:51:54.188Z,9.05
2023-01-07T02:54:23.861Z,9.14
2023-01-07T02:56:50.274Z,9.12
2023-01-07T02:59:27.453Z,9.05
2023-01-07T03:02:13.917Z,8.96
2023-01-07T03:05:16.683Z,8.97
2023-01-07T03:07:51.584Z,8.79
2023-01-07T03:10:40.087Z,8.69
2023-01-07T03:13:12.051Z,8.69
2023-01-07T03:15:48.353Z,8.68
2023-01-07T03:18:24.599Z,8.77
2023-01-07T03:20:56.769Z,8.84
2023-01-07T03:23:26.705Z,9.10
2023-01-07T03:25:55.632Z,9.18
2023-01-07T03:28:27.833Z,8.98
2023-01-07T03:30:57.224Z,8.73
2023-01-07T03:33:42.505Z,8.74
2023-01-07T03:36:12.237Z,8.91
2023-01-07T03:38:42.959Z,8.91
2023-01-07T03:41:09.387Z,9.05
2023-01-07T03:43:35.939Z,8.97
2023-01-07T03:46:02.595Z,9.01
2023-01-07T03:48:29.231Z,9.16
2023-01-07T03:50:55.774Z,9.03
2023-01-07T03:53:22.581Z,9.04
2023-01-07T03:55:48.986Z,9.20
2023-01-07T03:58:15.402Z,9.31
2023-01-07T04:00:41.853Z,9.24
2023-01-07T04:03:08.317Z,9.35
2023-01-07T04:05:34.732Z,9.32
2023-01-07T04:08:01.385Z,9.36
2023-01-07T04:10:27.811Z,9.51
2023-01-07T04:12:54.439Z,9.45
2023-01-07T04:15:20.835Z,9.56
2023-01-07T04:17:47.359Z,9.45
2023-01-07T04:20:14.019Z,9.46
2023-01-07T04:22:40.817Z,9.47
2023-01-07T04:25:07.666Z,9.45
2023-01-07T04:27:34.180Z,9.45
2023-01-07T04:30:00.687Z,9.44
2023-01-07T04:32:27.091Z,9.38
2023-01-07T04:34:53.576Z,9.29
2023-01-07T04:37:19.949Z,9.28
2023-01-07T04:39:46.534Z,9.28
2023-01-07T04:42:13.031Z,9.38
2023-01-07T04:44:39.637Z,9.39
2023-01-07T04:47:06.035Z,9.29
2023-01-07T04:49:32.632Z,9.32
2023-01-07T04:51:58.961Z,9.32
2023-01-07T04:54:25.462Z,9.42
2023-01-07T04:56:51.890Z,9.42
2023-01-07T04:59:18.668Z,9.42
2023-01-07T05:01:45.228Z,9.35
2023-01-07T05:04:12.006Z,9.34
2023-01-07T05:06:38.498Z,9.34
2023-01-07T05:09:05.205Z,9.31
2023-01-07T05:11:31.832Z,9.32
2023-01-07T05:14:00.606Z,9.30
2023-01-07T05:16:27.276Z,9.32
2023-01-07T05:18:53.875Z,9.32
2023-01-07T05:21:20.413Z,9.23
2023-01-07T05:23:46.908Z,9.31
2023-01-07T05:26:13.417Z,9.37
2023-01-07T05:28:39.878Z,9.29
2023-01-07T05:31:06.371Z,9.21
2023-01-07T05:33:32.927Z,9.22
2023-01-07T05:35:59.520Z,9.24
2023-01-07T05:38:26.180Z,9.41
2023-01-07T05:40:52.854Z,9.30
2023-01-07T05:43:19.300Z,9.38
2023-01-07T05:45:46.413Z,9.37
2023-01-07T05:48:13.881Z,9.32
2023-01-07T05:50:40.349Z,9.25
2023-01-07T05:53:07.142Z,9.24
2023-01-07T05:55:33.650Z,9.16
2023-01-07T05:58:00.135Z,9.16
2023-01-07T06:00:26.734Z,9.19
2023-01-07T06:02:53.250Z,9.27
2023-01-07T06:05:19.994Z,9.27
2023-01-07T06:07:46.563Z,9.18
2023-01-07T06:10:12.986Z,9.17
2023-01-07T06:12:39.493Z,9.20
2023-01-07T06:15:09.289Z,9.17
2023-01-07T06:17:36.361Z,9.14
2023-01-07T06:20:03.767Z,9.26
2023-01-07T06:22:30.224Z,9.27
2023-01-07T06:24:56.707Z,9.17
2023-01-07T06:27:23.729Z,9.15
2023-01-07T06:29:50.357Z,9.20
2023-01-07T06:32:17.877Z,9.18
2023-01-07T06:34:44.369Z,9.20
2023-01-07T06:37:10.753Z,9.24
2023-01-07T06:39:37.238Z,9.14
2023-01-07T06:42:03.842Z,9.24
2023-01-07T06:44:30.450Z,9.15
2023-01-07T06:46:56.940Z,9.16
2023-01-07T06:49:23.357Z,9.18
2023-01-07T06:51:49.783Z,9.19
2023-01-07T06:54:16.258Z,9.19
2023-01-07T06:56:42.778Z,9.16
2023-01-07T06:59:10.600Z,9.13
2023-01-07T07:01:37.280Z,9.15
2023-01-07T07:04:03.807Z,9.10
2023-01-07T07:06:30.561Z,9.19
2023-01-07T07:08:57.083Z,9.07
2023-01-07T07:11:23.832Z,9.20
2023-01-07T07:13:50.315Z,9.21
2023-01-07T07:16:16.753Z,9.18
2023-01-07T07:18:43.345Z,9.19
2023-01-07T07:21:10.249Z,9.20
2023-01-07T07:23:36.764Z,9.17
2023-01-07T07:26:03.476Z,9.17
2023-01-07T07:28:30.507Z,9.19
2023-01-07T07:30:57.523Z,9.21
2023-01-07T07:33:23.825Z,9.21
2023-01-07T07:35:50.363Z,9.22
2023-01-07T07:38:18.583Z,9.26
2023-01-07T07:40:45.959Z,9.28
2023-01-07T07:43:13.226Z,9.26
2023-01-07T07:45:43.527Z,9.28
2023-01-07T07:48:13.056Z,9.24
2023-01-07T07:50:39.941Z,9.24
2023-01-07T07:53:09.946Z,9.24
2023-01-07T07:55:37.970Z,9.28
2023-01-07T07:58:05.013Z,9.31
2023-01-07T08:00:31.828Z,9.26
2023-01-07T08:02:59.463Z,9.29
2023-01-07T08:05:27.657Z,9.36
2023-01-07T08:07:54.771Z,9.38
2023-01-07T08:10:21.605Z,9.32
2023-01-07T08:12:50.463Z,9.45
2023-01-07T08:15:17.887Z,9.43
2023-01-07T08:17:44.675Z,9.43
2023-01-07T08:20:12.315Z,9.43
2023-01-07T08:22:39.541Z,9.47
2023-01-07T08:25:06.410Z,9.49
2023-01-07T08:27:33.286Z,9.49
2023-01-07T08:29:59.926Z,9.49
2023-01-07T08:32:26.441Z,9.56
2023-01-07T08:34:53.200Z,9.57
2023-01-07T08:37:19.741Z,9.52
2023-01-07T08:39:46.245Z,9.56
2023-01-07T08:42:12.851Z,9.59
2023-01-07T08:44:39.453Z,9.52
2023-01-07T08:47:05.966Z,9.61
2023-01-07T08:49:32.614Z,9.71
2023-01-07T08:51:58.988Z,9.68
2023-01-07T08:54:25.480Z,9.72
2023-01-07T08:56:51.924Z,9.65
2023-01-07T08:59:18.415Z,9.66
2023-01-07T09:01:45.322Z,9.69
2023-01-07T09:04:11.999Z,9.83
2023-01-07T09:06:38.630Z,9.78
2023-01-07T09:09:05.174Z,9.83
2023-01-07T09:11:31.786Z,9.85
2023-01-07T09:13:58.227Z,9.96
2023-01-07T09:16:24.869Z,10.01
2023-01-07T09:18:51.427Z,9.96
2023-01-07T09:21:18.026Z,10.00
2023-01-07T09:23:44.570Z,10.08
2023-01-07T09:26:11.237Z,10.17
2023-01-07T09:28:37.782Z,10.20
2023-01-07T09:31:05.387Z,10.22
2023-01-07T09:33:32.648Z,10.31
2023-01-07T09:35:59.009Z,10.31
2023-01-07T09:38:25.503Z,10.26
2023-01-07T09:40:53.176Z,10.44
2023-01-07T09:43:59.885Z,10.35
2023-01-07T09:46:23.857Z,10.22
2023-01-07T09:48:57.925Z,10.26
2023-01-07T09:51:37.315Z,10.33
2023-01-07T09:54:06.392Z,10.42
2023-01-07T09:56:34.925Z,10.51
2023-01-07T09:59:03.873Z,10.47
2023-01-07T10:01:30.396Z,10.48
2023-01-07T10:04:23.142Z,10.43
2023-01-07T10:07:18.861Z,10.53
2023-01-07T10:10:08.252Z,10.36
2023-01-07T10:12:37.884Z,10.48
2023-01-07T10:15:15.377Z,10.52
2023-01-07T10:17:53.944Z,10.47
2023-01-07T10:20:20.391Z,10.60
2023-01-07T10:22:50.092Z,10.56
2023-01-07T10:25:21.875Z,10.69
2023-01-07T10:27:51.309Z,10.71
2023-01-07T10:30:32.540Z,10.77
2023-01-07T10:33:11.546Z,10.89
2023-01-07T10:35:40.011Z,10.79
2023-01-07T10:38:18.823Z,10.76
2023-01-07T10:41:34.744Z,10.81
2023-01-07T10:44:32.840Z,10.85
2023-01-07T10:47:33.625Z,10.70
2023-01-07T10:50:07.504Z,10.77
2023-01-07T10:52:48.219Z,10.86
2023-01-07T10:55:17.481Z,10.90
2023-01-07T10:57:45.009Z,10.91
2023-01-07T11:00:16.139Z,11.01
2023-01-07T11:02:51.996Z,11.07
2023-01-07T11:05:21.158Z,10.99
2023-01-07T11:07:52.222Z,10.92
2023-01-07T11:10:23.921Z,11.01
2023-01-07T11:12:59.856Z,10.99
2023-01-07T11:15:32.295Z,10.94
2023-01-07T11:18:04.507Z,10.94
2023-01-07T11:20:48.394Z,11.08
2023-01-07T11:23:37.746Z,11.09
2023-01-07T11:26:06.317Z,11.05
2023-01-07T11:28:33.779Z,11.04
2023-01-07T11:31:01.339Z,10.99
2023-01-07T11:34:01.957Z,11.06
2023-01-07T11:36:40.953Z,10.95
2023-01-07T11:39:17.829Z,10.85
2023-01-07T11:41:59.055Z,10.83
2023-01-07T11:44:26.431Z,10.83
2023-01-07T11:46:54.693Z,10.95
2023-01-07T11:49:30.557Z,10.93
2023-01-07T11:51:58.530Z,10.86
2023-01-07T11:54:27.777Z,10.78
2023-01-07T11:57:20.599Z,10.87
2023-01-07T11:59:47.264Z,10.86
2023-01-07T12:02:26.891Z,10.82
2023-01-07T12:05:17.697Z,10.78
2023-01-07T12:07:49.037Z,10.75
2023-01-07T12:10:28.844Z,10.78
2023-01-07T12:12:55.803Z,10.58
2023-01-07T12:15:27.074Z,10.56
2023-01-07T12:18:09.485Z,10.60
2023-01-07T12:20:50.597Z,10.75
2023-01-07T12:23:20.258Z,10.70
2023-01-07T12:26:12.856Z,10.76
2023-01-07T12:28:45.857Z,10.89
2023-01-07T12:31:30.948Z,10.80
2023-01-07T12:34:29.992Z,10.76
2023-01-07T12:37:21.052Z,10.70
2023-01-07T12:39:54.406Z,10.82
2023-01-07T12:42:30.169Z,10.82
2023-01-07T12:45:03.981Z,10.77
2023-01-07T12:47:39.714Z,10.75
2023-01-07T12:50:15.245Z,10.75
2023-01-07T12:52:55.660Z,10.76
2023-01-07T12:55:28.369Z,10.79
2023-01-07T12:58:15.873Z,10.74
2023-01-07T13:00:59.621Z,10.77
2023-01-07T13:03:46.418Z,10.68
2023-01-07T13:06:28.238Z,10.74
2023-01-07T13:09:14.011Z,10.84
2023-01-07T13:12:03.640Z,10.84
2023-01-07T13:14:39.079Z,10.93
2023-01-07T13:17:15.348Z,10.95
2023-01-07T13:19:42.181Z,10.88
2023-01-07T13:22:16.758Z,10.93
2023-01-07T13:25:22.690Z,10.97
2023-01-07T13:28:25.478Z,10.96
2023-01-07T13:31:07.572Z,11.04
2023-01-07T13:34:15.733Z,11.00
2023-01-07T13:37:02.684Z,10.99
2023-01-07T13:39:54.237Z,10.94
2023-01-07T13:42:46.434Z,11.08
2023-01-07T13:45:31.199Z,11.10
2023-01-07T13:48:00.214Z,11.05
2023-01-07T13:50:43.217Z,11.02
2023-01-07T13:53:16.107Z,10.93
2023-01-07T13:55:44.547Z,10.91
2023-01-07T13:58:31.359Z,10.99
2023-01-07T14:01:19.644Z,10.94
2023-01-07T14:04:03.231Z,11.00
2023-01-07T14:06:29.569Z,11.07
2023-01-07T14:09:05.061Z,11.17
2023-01-07T14:11:32.477Z,11.09
2023-01-07T14:14:05.400Z,11.00
2023-01-07T14:16:46.538Z,11.09
2023-01-07T14:19:35.108Z,10.97
2023-01-07T14:22:16.204Z,10.98
2023-01-07T14:24:56.912Z,10.75
2023-01-07T14:27:50.156Z,10.74
2023-01-07T14:30:23.532Z,10.69
2023-01-07T14:33:00.158Z,10.63
2023-01-07T14:35:29.823Z,10.65
2023-01-07T14:37:56.243Z,10.59
2023-01-07T14:40:25.779Z,10.59
2023-01-07T14:42:58.341Z,10.54
2023-01-07T14:45:37.169Z,10.60
2023-01-07T14:48:09.839Z,10.57
2023-01-07T14:51:05.657Z,10.54
2023-01-07T14:53:51.333Z,10.58
2023-01-07T14:56:40.525Z,10.56
2023-01-07T14:59:25.643Z,10.36
2023-01-07T15:02:30.179Z,10.48
2023-01-07T15:05:15.344Z,10.39
2023-01-07T15:07:43.349Z,10.41
2023-01-07T15:10:38.696Z,10.40
2023-01-07T15:13:26.159Z,10.43
2023-01-07T15:16:04.113Z,10.27
2023-01-07T15:18:34.471Z,10.17
2023-01-07T15:21:18.822Z,10.19
2023-01-07T15:24:13.493Z,9.96
2023-01-07T15:27:14.044Z,10.01
2023-01-07T15:30:03.427Z,9.64
2023-01-07T15:32:54.878Z,9.35
2023-01-07T15:35:28.333Z,9.30
2023-01-07T15:37:55.221Z,9.24
2023-01-07T15:40:25.107Z,9.46
2023-01-07T15:42:53.850Z,9.29
2023-01-07T15:45:25.468Z,9.18
2023-01-07T15:47:51.870Z,8.97
2023-01-07T15:50:30.796Z,8.86
2023-01-07T15:53:10.655Z,9.04
2023-01-07T15:56:01.974Z,9.03
2023-01-07T15:58:47.398Z,8.99
2023-01-07T16:01:22.999Z,8.82
2023-01-07T16:03:54.917Z,8.71
2023-01-07T16:06:30.456Z,8.67
2023-01-07T16:08:58.339Z,8.96
2023-01-07T16:11:27.501Z,8.95
2023-01-07T16:13:59.321Z,9.00
2023-01-07T16:16:27.439Z,8.90
2023-01-07T16:18:58.817Z,8.79
2023-01-07T16:21:33.211Z,8.93
2023-01-07T16:23:59.707Z,8.71
2023-01-07T16:26:51.533Z,8.56
2023-01-07T16:29:26.925Z,8.74
2023-01-07T16:31:54.571Z,8.72
2023-01-07T16:34:24.035Z,8.76
2023-01-07T16:36:55.112Z,8.55
2023-01-07T16:39:26.885Z,8.56
2023-01-07T16:42:12.721Z,8.60
2023-01-07T16:44:42.168Z,8.63
2023-01-07T16:47:17.739Z,8.59
2023-01-07T16:49:44.980Z,8.31
2023-01-07T16:52:14.330Z,8.49
2023-01-07T16:54:43.407Z,8.52
2023-01-07T16:57:10.083Z,8.50
2023-01-07T16:59:53.472Z,8.45
2023-01-07T17:02:42.564Z,8.40
2023-01-07T17:05:12.410Z,8.50
2023-01-07T17:07:40.102Z,8.56
2023-01-07T17:10:07.493Z,8.40
2023-01-07T17:13:12.504Z,8.42
2023-01-07T17:15:39.419Z,8.73
2023-01-07T17:18:12.172Z,8.54
2023-01-07T17:20:44.053Z,8.54
2023-01-07T17:23:31.589Z,8.60
2023-01-07T17:26:06.394Z,9.01
2023-01-07T17:28:39.291Z,9.06
2023-01-07T17:31:06.875Z,9.17
2023-01-07T17:33:33.585Z,9.16
2023-01-07T17:36:00.083Z,9.19
2023-01-07T17:38:28.712Z,9.15
2023-01-07T17:40:55.804Z,9.14
2023-01-07T17:43:33.991Z,9.15
2023-01-07T17:46:01.657Z,9.26
2023-01-07T17:48:28.559Z,9.06
2023-01-07T17:50:58.075Z,9.23
2023-01-07T17:53:30.699Z,9.23
2023-01-07T17:55:57.382Z,9.22
2023-01-07T17:58:32.345Z,9.32
2023-01-07T18:01:01.238Z,9.39
2023-01-07T18:03:28.314Z,9.24
2023-01-07T18:05:54.883Z,9.31
2023-01-07T18:08:21.774Z,9.41
2023-01-07T18:11:07.290Z,9.31
2023-01-07T18:13:33.699Z,9.35
2023-01-07T18:16:00.299Z,9.22
2023-01-07T18:18:30.773Z,9.21
2023-01-07T18:20:58.344Z,9.19
2023-01-07T18:23:25.451Z,9.23
2023-01-07T18:25:51.876Z,9.33
2023-01-07T18:28:18.519Z,9.26
2023-01-07T18:30:45.082Z,9.40
2023-01-07T18:33:12.590Z,9.34
2023-01-07T18:35:40.586Z,9.30
2023-01-07T18:38:13.218Z,9.37
2023-01-07T18:40:40.297Z,9.29
2023-01-07T18:43:07.093Z,9.24
2023-01-07T18:45:33.942Z,9.27
2023-01-07T18:48:00.420Z,9.39
2023-01-07T18:50:27.162Z,9.20
2023-01-07T18:52:53.548Z,9.17
2023-01-07T18:55:21.068Z,9.21
2023-01-07T18:57:47.451Z,9.17
2023-01-07T19:00:15.493Z,9.43
2023-01-07T19:02:42.139Z,9.33
2023-01-07T19:05:08.771Z,9.27
2023-01-07T19:07:36.067Z,9.35
2023-01-07T19:10:07.223Z,9.40
2023-01-07T19:12:34.066Z,9.38
2023-01-07T19:15:00.565Z,9.40
2023-01-07T19:17:27.389Z,9.36
2023-01-07T19:19:53.994Z,9.41
2023-01-07T19:22:20.816Z,9.52
2023-01-07T19:24:47.243Z,9.50
2023-01-07T19:27:14.243Z,9.53
2023-01-07T19:29:40.839Z,9.46
2023-01-07T19:32:07.570Z,9.40
2023-01-07T19:34:34.275Z,9.56
2023-01-07T19:37:00.827Z,9.69
2023-01-07T19:39:27.341Z,9.61
2023-01-07T19:41:55.152Z,9.64
2023-01-07T19:44:21.823Z,9.65
2023-01-07T19:46:48.565Z,9.51
2023-01-07T19:49:15.011Z,9.54
2023-01-07T19:51:42.072Z,9.59
2023-01-07T19:54:15.202Z,9.60
2023-01-07T19:56:43.659Z,9.54
2023-01-07T19:59:10.702Z,9.62
2023-01-07T20:01:38.678Z,9.65
2023-01-07T20:04:07.362Z,9.73
2023-01-07T20:06:38.590Z,9.86
2023-01-07T20:09:10.428Z,9.97
2023-01-07T20:11:40.515Z,10.16
2023-01-07T20:14:10.696Z,10.00
2023-01-07T20:16:39.371Z,10.02
2023-01-07T20:19:07.005Z,10.10
2023-01-07T20:21:33.754Z,10.02
2023-01-07T20:24:00.374Z,10.11
2023-01-07T20:26:29.617Z,10.17
2023-01-07T20:28:57.024Z,10.12
2023-01-07T20:31:25.632Z,9.99
2023-01-07T20:33:55.917Z,10.00
2023-01-07T20:36:25.764Z,10.01
2023-01-07T20:38:52.463Z,10.11
2023-01-07T20:41:21.638Z,10.32
2023-01-07T20:43:53.442Z,10.11
2023-01-07T20:46:20.689Z,10.11
2023-01-07T20:48:47.403Z,10.06
2023-01-07T20:51:15.608Z,10.03
2023-01-07T20:53:43.229Z,10.18
2023-01-07T20:56:10.391Z,10.17
2023-01-07T20:58:37.667Z,10.14
2023-01-07T21:01:10.756Z,10.04
2023-01-07T21:03:39.007Z,10.18
2023-01-07T21:06:09.560Z,10.22
2023-01-07T21:08:36.801Z,10.23
2023-01-07T21:11:03.853Z,10.33
2023-01-07T21:13:30.483Z,10.27
2023-01-07T21:16:02.995Z,10.17
2023-01-07T21:18:30.632Z,10.31
2023-01-07T21:20:57.610Z,10.29
2023-01-07T21:23:26.409Z,10.35
2023-01-07T21:25:53.566Z,10.21
2023-01-07T21:28:20.554Z,10.18
2023-01-07T21:30:47.464Z,10.16
2023-01-07T21:33:15.259Z,10.22
2023-01-07T21:35:42.468Z,10.27
2023-01-07T21:38:09.539Z,10.22
2023-01-07T21:40:37.202Z,10.15
2023-01-07T21:43:03.669Z,10.32
2023-01-07T21:45:30.270Z,10.26
2023-01-07T21:47:57.493Z,10.35
2023-01-07T21:50:23.869Z,10.31
2023-01-07T21:52:50.340Z,10.40
2023-01-07T21:55:17.002Z,10.42
2023-01-07T21:57:43.821Z,10.34
2023-01-07T22:00:11.611Z,10.42
2023-01-07T22:02:38.148Z,10.41
2023-01-07T22:05:05.104Z,10.44
2023-01-07T22:07:31.504Z,10.40
2023-01-07T22:09:58.505Z,10.42
2023-01-07T22:12:25.638Z,10.40
2023-01-07T22:14:52.083Z,10.43
2023-01-07T22:17:18.841Z,10.31
2023-01-07T22:19:45.477Z,10.31
2023-01-07T22:22:12.003Z,10.31
2023-01-07T22:24:38.538Z,10.30
2023-01-07T22:27:05.151Z,10.29
2023-01-07T22:29:32.213Z,10.16
2023-01-07T22:31:59.501Z,10.11
2023-01-07T22:34:25.937Z,10.29
2023-01-07T22:36:59.001Z,10.28
2023-01-07T22:39:57.517Z,10.22
2023-01-07T22:42:37.199Z,10.26
2023-01-07T22:45:15.821Z,10.31
2023-01-07T22:47:45.964Z,10.27
2023-01-07T22:50:14.501Z,10.20
2023-01-07T22:52:42.583Z,10.27
2023-01-07T22:55:11.438Z,10.28
2023-01-07T22:57:38.977Z,10.22
2023-01-07T23:00:10.006Z,10.20
2023-01-07T23:02:37.563Z,10.21
2023-01-07T23:05:04.775Z,10.25
2023-01-07T23:07:32.390Z,10.31
2023-01-07T23:09:59.340Z,10.24
2023-01-07T23:12:25.862Z,10.21
2023-01-07T23:14:52.277Z,10.23
2023-01-07T23:17:18.741Z,10.27
2023-01-07T23:19:45.098Z,10.18
2023-01-07T23:22:11.492Z,10.17
2023-01-07T23:24:37.962Z,10.21
2023-01-07T23:27:04.467Z,10.29
2023-01-07T23:29:31.141Z,10.15
2023-01-07T23:31:57.736Z,10.17
2023-01-07T23:34:24.431Z,10.08
2023-01-07T23:36:51.036Z,10.11
2023-01-07T23:39:17.577Z,10.08
2023-01-07T23:41:44.235Z,10.10
2023-01-07T23:44:10.857Z,10.18
2023-01-07T23:46:37.554Z,10.17
2023-01-07T23:49:04.259Z,10.16
2023-01-07T23:51:32.993Z,10.23
2023-01-07T23:53:59.626Z,10.18
2023-01-07T23:56:26.445Z,10.21
2023-01-07T23:58:53.341Z,10.19
